createdAt,value
2023-05-22T00:02:54.707Z,97386.94
2023-05-22T00:07:59.650Z,97642.06
2023-05-22T00:13:03.159Z,97662.50
2023-05-22T00:18:08.251Z,97626.63
2023-05-22T00:23:15.428Z,97636.47
2023-05-22T00:28:19.292Z,97667.19
2023-05-22T00:33:22.861Z,97656.22
2023-05-22T00:38:32.307Z,97655.16
2023-05-22T00:43:36.123Z,97624.69
2023-05-22T00:48:39.781Z,97617.97
2023-05-22T00:53:45.324Z,97664.19
2023-05-22T00:58:49.217Z,97655.94
2023-05-22T01:03:54.464Z,97622.53
2023-05-22T01:08:59.545Z,97550.94
2023-05-22T01:14:10.885Z,97659.63
2023-05-22T01:19:34.486Z,97632.53
2023-05-22T01:24:57.393Z,97637.03
2023-05-22T01:30:27.865Z,97594.91
2023-05-22T01:35:36.169Z,97640.38
2023-05-22T01:40:40.560Z,97610.84
2023-05-22T01:45:44.234Z,97642.53
2023-05-22T01:50:53.185Z,97668.19
2023-05-22T01:56:02.588Z,97555.94
2023-05-22T02:01:09.530Z,97686.50
2023-05-22T02:06:16.053Z,97682.38
2023-05-22T02:11:22.701Z,97633.31
2023-05-22T02:16:28.784Z,97645.75
2023-05-22T02:21:34.027Z,97679.63
2023-05-22T02:26:39.662Z,97653.22
2023-05-22T02:31:43.392Z,97681.31
2023-05-22T02:36:51.011Z,97600.91
2023-05-22T02:41:54.539Z,97669.97
2023-05-22T02:46:58.289Z,97637.69
2023-05-22T02:52:03.188Z,97679.59
2023-05-22T02:57:06.917Z,97627.81
2023-05-22T03:02:10.409Z,97521.81
2023-05-22T03:07:15.295Z,97681.28
2023-05-22T03:12:18.818Z,97643.94
2023-05-22T03:17:22.319Z,97688.88
2023-05-22T03:22:27.421Z,97671.78
2023-05-22T03:27:31.132Z,97673.34
2023-05-22T03:32:37.504Z,97592.81
2023-05-22T03:37:44.502Z,97555.56
2023-05-22T03:42:49.402Z,97697.78
2023-05-22T03:47:53.978Z,97707.72
2023-05-22T03:52:58.854Z,97709.28
2023-05-22T03:58:02.462Z,97709.69
2023-05-22T04:03:07.282Z,97710.97
2023-05-22T04:08:12.272Z,97701.41
2023-05-22T04:13:16.383Z,97683.81
2023-05-22T04:18:19.843Z,97659.47
2023-05-22T04:23:24.740Z,97600.78
2023-05-22T04:28:30.302Z,97686.78
2023-05-22T04:33:35.322Z,97717.72
2023-05-22T04:38:41.361Z,97490.09
2023-05-22T04:43:48.457Z,97732.69
2023-05-22T04:48:52.676Z,97701.78
2023-05-22T04:53:58.527Z,97738.88
2023-05-22T04:59:02.152Z,97737.31
2023-05-22T05:04:06.228Z,97683.75
2023-05-22T05:09:11.588Z,97701.72
2023-05-22T05:14:15.024Z,97749.69
2023-05-22T05:19:21.282Z,97742.59
2023-05-22T05:24:26.278Z,97738.84
2023-05-22T05:29:30.344Z,97758.72
2023-05-22T05:34:39.679Z,97719.84
2023-05-22T05:39:57.019Z,97694.47
2023-05-22T05:45:01.035Z,97574.47
2023-05-22T05:50:07.584Z,97724.97
2023-05-22T05:55:13.567Z,97495.72
2023-05-22T06:00:18.584Z,97741.19
2023-05-22T06:05:26.975Z,97707.44
2023-05-22T06:10:39.346Z,97720.78
2023-05-22T06:15:52.105Z,97745.59
2023-05-22T06:20:59.076Z,97747.88
2023-05-22T06:26:05.154Z,97757.03
2023-05-22T06:31:09.953Z,97702.75
2023-05-22T06:36:16.212Z,97755.34
2023-05-22T06:41:22.932Z,97749.50
2023-05-22T06:46:26.623Z,97696.03
2023-05-22T06:51:34.676Z,97740.13
2023-05-22T06:56:44.557Z,97760.72
2023-05-22T07:01:52.657Z,97760.22
2023-05-22T07:07:11.291Z,97767.66
2023-05-22T07:12:16.592Z,97763.66
2023-05-22T07:17:22.070Z,97753.34
2023-05-22T07:22:26.224Z,97772.50
2023-05-22T07:27:32.225Z,97749.88
2023-05-22T07:32:38.275Z,97723.16
2023-05-22T07:37:43.060Z,97761.66
2023-05-22T07:42:48.054Z,97711.22
2023-05-22T07:47:54.038Z,97754.59
2023-05-22T07:52:59.195Z,97758.41
2023-05-22T07:58:05.335Z,97757.03
2023-05-22T08:03:13.798Z,97754.25
2023-05-22T08:08:17.457Z,97765.47
2023-05-22T08:13:23.709Z,97759.63
2023-05-22T08:18:29.215Z,97768.59
2023-05-22T08:23:35.881Z,97456.66
2023-05-22T08:28:44.157Z,97624.59
2023-05-22T08:33:47.705Z,97758.56
2023-05-22T08:38:51.190Z,97670.47
2023-05-22T08:43:56.046Z,97664.63
2023-05-22T08:48:59.911Z,97752.75
2023-05-22T08:54:07.467Z,97574.66
2023-05-22T08:59:12.833Z,97755.84
2023-05-22T09:04:16.814Z,97748.06
2023-05-22T09:09:22.418Z,97760.81
2023-05-22T09:14:31.225Z,97723.94
2023-05-22T09:19:35.377Z,97733.53
2023-05-22T09:24:43.236Z,97747.00
2023-05-22T09:30:13.320Z,97735.28
2023-05-22T09:35:22.631Z,97620.94
2023-05-22T09:40:28.914Z,97747.38
2023-05-22T09:45:38.080Z,97525.06
2023-05-22T09:50:42.498Z,97596.47
2023-05-22T09:55:49.712Z,97739.50
2023-05-22T10:00:56.742Z,97737.53
2023-05-22T10:06:01.988Z,97716.56
2023-05-22T10:11:10.364Z,97691.63
2023-05-22T10:16:17.331Z,97729.63
2023-05-22T10:21:23.679Z,97722.53
2023-05-22T10:26:30.892Z,97660.00
2023-05-22T10:31:45.488Z,97723.53
2023-05-22T10:37:18.182Z,97723.09
2023-05-22T10:42:24.166Z,97704.31
2023-05-22T10:47:29.282Z,97720.16
2023-05-22T10:52:33.235Z,97681.63
2023-05-22T10:57:41.132Z,97681.94
2023-05-22T11:02:47.498Z,97431.31
2023-05-22T11:08:11.093Z,97470.22
2023-05-22T11:13:14.889Z,97648.94
2023-05-22T11:18:19.759Z,97500.50
2023-05-22T11:23:26.416Z,97658.13
2023-05-22T11:28:31.780Z,97680.16
2023-05-22T11:33:36.706Z,97679.34
2023-05-22T11:38:41.145Z,97669.47
2023-05-22T11:43:45.338Z,97643.97
2023-05-22T11:48:50.222Z,97663.31
2023-05-22T11:53:53.807Z,97657.50
2023-05-22T11:59:00.287Z,97653.78
2023-05-22T12:04:06.012Z,97450.59
2023-05-22T12:09:09.799Z,97623.91
2023-05-22T12:14:13.390Z,97642.06
2023-05-22T12:19:18.961Z,97647.06
2023-05-22T12:24:23.598Z,97627.56
2023-05-22T12:29:27.055Z,97626.59
2023-05-22T12:34:34.915Z,97627.72
2023-05-22T12:39:38.582Z,97607.09
2023-05-22T12:44:42.076Z,97640.28
2023-05-22T12:49:47.019Z,97629.25
2023-05-22T12:54:51.425Z,97640.25
2023-05-22T12:59:54.894Z,97541.31
2023-05-22T13:04:59.844Z,97615.97
2023-05-22T13:10:04.950Z,97604.59
2023-05-22T13:15:11.603Z,97628.81
2023-05-22T13:20:16.431Z,97622.16
2023-05-22T13:25:20.031Z,97560.41
2023-05-22T13:30:23.487Z,97610.13
2023-05-22T13:35:28.529Z,97609.44
2023-05-22T13:40:31.968Z,97572.88
2023-05-22T13:45:38.741Z,97581.13
2023-05-22T13:50:44.054Z,97587.03
2023-05-22T13:55:47.784Z,97514.63
2023-05-22T14:00:52.845Z,97577.59
2023-05-22T14:05:57.787Z,97606.72
2023-05-22T14:11:01.299Z,97580.59
2023-05-22T14:16:04.920Z,97557.03
2023-05-22T14:21:09.763Z,97520.53
2023-05-22T14:26:14.462Z,97603.31
2023-05-22T14:31:18.894Z,97604.59
2023-05-22T14:36:23.806Z,97595.97
2023-05-22T14:41:27.297Z,97606.66
2023-05-22T14:46:31.264Z,97561.28
2023-05-22T14:51:36.234Z,97614.97
2023-05-22T14:56:39.636Z,97616.44
2023-05-22T15:01:43.092Z,97611.16
2023-05-22T15:06:47.910Z,97614.25
2023-05-22T15:11:51.412Z,97626.75
2023-05-22T15:16:54.920Z,97626.44
2023-05-22T15:22:08.930Z,97576.97
2023-05-22T15:27:19.287Z,97618.97
2023-05-22T15:32:22.832Z,97550.53
2023-05-22T15:37:30.222Z,97591.13
2023-05-22T15:42:35.096Z,97591.25
2023-05-22T15:47:38.865Z,97582.75
2023-05-22T15:52:43.888Z,97559.88
2023-05-22T15:57:47.401Z,97597.63
2023-05-22T16:02:51.270Z,97614.19
2023-05-22T16:07:56.247Z,97599.91
2023-05-22T16:13:00.135Z,97614.97
2023-05-22T16:18:03.951Z,97565.78
2023-05-22T16:23:08.936Z,97600.50
2023-05-22T16:28:12.384Z,97556.69
2023-05-22T16:33:15.851Z,97546.13
2023-05-22T16:38:20.948Z,97604.19
2023-05-22T16:43:24.676Z,97615.50
2023-05-22T16:48:28.265Z,97595.59
2023-05-22T16:53:33.134Z,97626.94
2023-05-22T16:58:39.068Z,97632.31
2023-05-22T17:03:42.764Z,97594.34
2023-05-22T17:08:47.663Z,97663.19
2023-05-22T17:13:51.170Z,97664.81
2023-05-22T17:18:55.077Z,97620.78
2023-05-22T17:23:59.975Z,97662.16
2023-05-22T17:29:03.701Z,97674.81
2023-05-22T17:34:07.332Z,97689.38
2023-05-22T17:39:12.316Z,97707.72
2023-05-22T17:44:15.726Z,97628.88
2023-05-22T17:49:19.509Z,97675.81
2023-05-22T17:54:24.258Z,97672.63
2023-05-22T17:59:27.801Z,97689.75
2023-05-22T18:04:31.273Z,97696.47
2023-05-22T18:09:36.001Z,97642.47
2023-05-22T18:14:39.815Z,97686.41
2023-05-22T18:19:43.268Z,97688.50
2023-05-22T18:24:48.103Z,97396.44
2023-05-22T18:29:51.805Z,97690.00
2023-05-22T18:34:55.340Z,97635.63
2023-05-22T18:40:05.267Z,97704.19
2023-05-22T18:45:11.456Z,97701.28
2023-05-22T18:50:16.199Z,97707.66
2023-05-22T18:55:25.399Z,97708.91
2023-05-22T19:00:31.913Z,97689.91
2023-05-22T19:05:47.020Z,97701.94
2023-05-22T19:11:06.595Z,97717.72
2023-05-22T19:16:12.270Z,97544.28
2023-05-22T19:21:20.565Z,97711.84
2023-05-22T19:26:28.124Z,97731.75
2023-05-22T19:31:32.024Z,97625.63
2023-05-22T19:36:38.940Z,97760.13
2023-05-22T19:41:45.075Z,97740.81
2023-05-22T19:47:00.036Z,97639.75
2023-05-22T19:52:21.408Z,97770.47
2023-05-22T19:57:35.114Z,97782.19
2023-05-22T20:02:48.228Z,97777.72
2023-05-22T20:07:56.205Z,97782.72
2023-05-22T20:13:04.918Z,97780.84
2023-05-22T20:18:10.922Z,97718.81
2023-05-22T20:23:17.610Z,97774.94
2023-05-22T20:28:28.358Z,97749.41
2023-05-22T20:33:33.266Z,97727.47
2023-05-22T20:38:38.195Z,97798.66
2023-05-22T20:43:44.023Z,97764.88
2023-05-22T20:48:52.655Z,97775.16
2023-05-22T20:54:05.402Z,97726.47
2023-05-22T20:59:19.830Z,97743.44
2023-05-22T21:04:25.469Z,97834.03
2023-05-22T21:09:32.685Z,97798.09
2023-05-22T21:14:44.130Z,97792.59
2023-05-22T21:19:51.548Z,97823.69
2023-05-22T21:24:59.760Z,97731.59
2023-05-22T21:30:07.493Z,97801.97
2023-05-22T21:35:12.243Z,97761.63
2023-05-22T21:40:22.813Z,97725.13
2023-05-22T21:45:31.229Z,97846.00
2023-05-22T21:50:36.355Z,97839.19
2023-05-22T21:55:39.841Z,97812.38
2023-05-22T22:00:44.810Z,97722.00
2023-05-22T22:05:50.460Z,97783.88
2023-05-22T22:10:54.088Z,97859.19
2023-05-22T22:15:59.470Z,97857.97
2023-05-22T22:21:03.101Z,97879.38
2023-05-22T22:26:06.653Z,97822.25
2023-05-22T22:31:11.507Z,97873.63
2023-05-22T22:36:15.068Z,97783.75
2023-05-22T22:41:18.643Z,97733.78
2023-05-22T22:46:23.473Z,97676.06
2023-05-22T22:51:26.970Z,97871.91
2023-05-22T22:56:30.385Z,97908.03
2023-05-22T23:01:35.271Z,97794.75
2023-05-22T23:06:41.739Z,97873.97
2023-05-22T23:11:45.256Z,97773.78
2023-05-22T23:16:50.119Z,97874.88
2023-05-22T23:21:53.688Z,97818.44
2023-05-22T23:26:57.124Z,97738.63
2023-05-22T23:32:02.057Z,97756.03
2023-05-22T23:37:06.292Z,97858.28
2023-05-22T23:42:11.137Z,97868.91
2023-05-22T23:47:39.824Z,97883.97
2023-05-22T23:52:43.276Z,97845.50
2023-05-22T23:57:46.735Z,97796.91
